Time;durP1;ratioP1;P1;durP2;ratioP2;P2;SDS_P1;SDS_P2;PMS_P1;PMS_P2;Temp;Humidity;BMP_temperature;BMP_pressure;BME280_temperature;BME280_humidity;BME280_pressure;Samples;Min_cycle;Max_cycle;Signal;HPM_P1;HPM_P2
2022/07/14 00:00:43;;;;;;;1.15;0.60;;;8.60;99.90;;;;;;5086191;28;20040;-72
2022/07/14 00:03:11;;;;;;;0.60;0.50;;;8.60;99.90;;;;;;5075278;28;20036;-73
2022/07/14 00:05:38;;;;;;;1.70;0.40;;;8.60;99.90;;;;;;5087226;28;20020;-72
2022/07/14 00:08:06;;;;;;;1.13;0.50;;;8.60;99.90;;;;;;5081099;28;20016;-74
2022/07/14 00:10:34;;;;;;;1.55;0.80;;;8.60;99.90;;;;;;5079286;28;20115;-74
2022/07/14 00:13:02;;;;;;;1.33;0.70;;;8.60;99.90;;;;;;5088555;28;20085;-74
2022/07/14 00:15:31;;;;;;;1.63;0.68;;;8.60;99.90;;;;;;5076111;28;20028;-74
2022/07/14 00:17:59;;;;;;;0.82;0.68;;;8.50;99.90;;;;;;5084026;28;20024;-74
2022/07/14 00:20:27;;;;;;;1.38;0.52;;;8.50;99.90;;;;;;5071415;28;20037;-74
2022/07/14 00:22:58;;;;;;;1.77;0.63;;;8.50;99.90;;;;;;5073537;28;20379;-73
2022/07/14 00:25:27;;;;;;;0.75;0.52;;;8.50;99.90;;;;;;5071506;28;20031;-73
2022/07/14 00:27:55;;;;;;;1.73;0.77;;;8.60;99.90;;;;;;5073742;28;20027;-72
2022/07/14 00:30:23;;;;;;;1.20;0.60;;;8.60;99.90;;;;;;5073716;28;20052;-74
2022/07/14 00:32:51;;;;;;;1.15;0.50;;;8.70;99.90;;;;;;5074517;28;20154;-73
2022/07/14 00:35:19;;;;;;;1.70;0.38;;;8.70;99.90;;;;;;5072688;28;20040;-73
2022/07/14 00:37:46;;;;;;;2.92;0.50;;;8.70;99.90;;;;;;5072585;28;20057;-72
2022/07/14 00:40:15;;;;;;;1.02;0.40;;;8.70;99.90;;;;;;5072143;28;20029;-73
2022/07/14 00:42:47;;;;;;;3.10;0.65;;;8.80;99.90;;;;;;5072265;28;20473;-72
2022/07/14 00:45:18;;;;;;;0.40;0.40;;;8.80;99.90;;;;;;5074751;28;20024;-71
2022/07/14 00:47:47;;;;;;;1.25;0.80;;;8.80;99.90;;;;;;5076555;28;20485;-73
2022/07/14 00:50:17;;;;;;;2.83;0.50;;;8.90;99.90;;;;;;5076277;28;20031;-73
2022/07/14 00:52:47;;;;;;;1.52;0.88;;;9.00;99.90;;;;;;5076022;28;20089;-71
2022/07/14 00:55:16;;;;;;;1.52;0.73;;;9.10;99.90;;;;;;5076262;28;20163;-72
2022/07/14 00:57:46;;;;;;;0.60;0.60;;;9.20;99.90;;;;;;5076099;28;20025;-72
2022/07/14 01:00:16;;;;;;;0.85;0.63;;;9.30;99.90;;;;;;5075856;28;20418;-72
2022/07/14 01:02:46;;;;;;;2.80;0.70;;;9.40;99.90;;;;;;5076245;28;20107;-72
2022/07/14 01:05:13;;;;;;;2.83;0.50;;;9.50;99.90;;;;;;5075747;28;20035;-71
2022/07/14 01:07:41;;;;;;;2.28;0.88;;;9.60;99.90;;;;;;5076788;28;20461;-73
2022/07/14 01:10:10;;;;;;;1.08;0.60;;;9.80;99.90;;;;;;5074912;28;20032;-72
2022/07/14 01:12:38;;;;;;;0.98;0.70;;;9.90;99.90;;;;;;5077305;28;20039;-74
2022/07/14 01:15:07;;;;;;;5.35;0.90;;;10.10;99.90;;;;;;5075968;28;20025;-72
2022/07/14 01:17:34;;;;;;;4.90;1.48;;;10.10;99.90;;;;;;5073648;28;20020;-72
2022/07/14 01:20:02;;;;;;;2.45;1.00;;;10.20;99.90;;;;;;5076034;28;20055;-72
2022/07/14 01:22:30;;;;;;;4.93;1.08;;;10.40;99.90;;;;;;5077450;28;20021;-74
2022/07/14 01:24:58;;;;;;;6.60;1.08;;;10.40;99.90;;;;;;5075807;28;20457;-72
2022/07/14 01:27:26;;;;;;;7.03;1.15;;;10.60;99.90;;;;;;5075905;28;20070;-73
2022/07/14 01:29:54;;;;;;;8.23;1.73;;;10.70;99.90;;;;;;5073171;28;20090;-74
2022/07/14 01:32:21;;;;;;;5.75;1.20;;;10.80;99.90;;;;;;5075862;28;20451;-72
2022/07/14 01:34:49;;;;;;;9.13;1.10;;;10.80;99.90;;;;;;5076313;28;20466;-72
2022/07/14 01:37:17;;;;;;;3.72;1.00;;;10.90;99.90;;;;;;5075438;28;20020;-71
2022/07/14 01:39:44;;;;;;;6.78;1.70;;;11.00;99.90;;;;;;5075638;28;20036;-72
2022/07/14 01:42:12;;;;;;;5.10;1.55;;;11.10;99.90;;;;;;5075492;28;20020;-73
2022/07/14 01:44:40;;;;;;;6.32;1.10;;;11.20;99.90;;;;;;5076950;28;20024;-72
2022/07/14 01:47:09;;;;;;;3.45;0.93;;;11.20;99.90;;;;;;5075690;28;20012;-72
2022/07/14 01:49:37;;;;;;;5.15;1.10;;;11.30;99.90;;;;;;5073095;28;20494;-73
2022/07/14 01:52:05;;;;;;;17.20;1.70;;;11.30;99.90;;;;;;5075548;28;20425;-73
2022/07/14 01:54:33;;;;;;;6.00;1.40;;;11.40;99.90;;;;;;5076259;28;20052;-72
2022/07/14 01:57:01;;;;;;;5.80;1.02;;;11.40;99.90;;;;;;5075258;28;20024;-72
2022/07/14 01:59:28;;;;;;;3.17;1.23;;;11.30;99.90;;;;;;5075569;28;20119;-73
2022/07/14 02:01:56;;;;;;;5.03;0.70;;;11.30;99.90;;;;;;5074896;28;20406;-73
2022/07/14 02:04:24;;;;;;;5.50;1.33;;;11.40;99.90;;;;;;5074795;28;20034;-73
2022/07/14 02:06:54;;;;;;;4.30;1.17;;;11.30;99.90;;;;;;5074866;28;20021;-73
2022/07/14 02:12:10;;;;;;;5.20;1.77;;;11.40;99.90;;;;;;5075010;28;20081;-72
2022/07/14 02:12:10;;;;;;;5.07;0.93;;;11.40;99.90;;;;;;5074007;28;20383;-72
2022/07/14 02:14:38;;;;;;;4.63;1.40;;;11.40;99.90;;;;;;5074197;28;20036;-72
2022/07/14 02:17:06;;;;;;;4.25;1.33;;;11.50;99.90;;;;;;5073437;28;20013;-72
2022/07/14 02:19:34;;;;;;;12.45;1.83;;;11.50;99.90;;;;;;5072930;28;20029;-72
2022/07/14 02:22:01;;;;;;;7.40;1.25;;;11.50;99.90;;;;;;5073702;28;20356;-73
2022/07/14 02:24:29;;;;;;;5.93;1.52;;;11.60;99.90;;;;;;5073664;28;20024;-72
2022/07/14 02:26:57;;;;;;;9.27;1.33;;;11.80;99.90;;;;;;5073308;28;20021;-73
2022/07/14 02:29:25;;;;;;;5.38;1.30;;;11.90;99.90;;;;;;5073272;28;20023;-73
2022/07/14 02:31:53;;;;;;;3.72;1.48;;;12.00;99.90;;;;;;5073115;28;20026;-73
2022/07/14 02:34:21;;;;;;;5.57;1.25;;;12.00;99.90;;;;;;5073456;28;20024;-73
2022/07/14 02:36:49;;;;;;;5.35;1.45;;;11.90;99.90;;;;;;5070715;28;20106;-74
2022/07/14 02:39:16;;;;;;;4.55;0.80;;;11.90;99.90;;;;;;5073036;28;20064;-73
2022/07/14 02:41:44;;;;;;;5.18;1.00;;;12.00;99.90;;;;;;5072661;28;20032;-72
2022/07/14 02:44:12;;;;;;;2.15;0.90;;;11.90;99.90;;;;;;5072665;28;20020;-72
2022/07/14 02:46:40;;;;;;;4.68;1.08;;;11.90;99.90;;;;;;5070527;28;20029;-73
2022/07/14 02:49:07;;;;;;;6.15;1.25;;;11.90;99.90;;;;;;5072865;28;20020;-73
2022/07/14 02:51:35;;;;;;;1.95;1.00;;;11.90;99.90;;;;;;5065948;28;20052;-74
2022/07/14 02:54:03;;;;;;;4.53;0.95;;;11.90;99.90;;;;;;5066145;28;20027;-72
2022/07/14 02:56:31;;;;;;;5.65;1.30;;;11.90;99.90;;;;;;5067599;28;20510;-73
2022/07/14 02:58:58;;;;;;;4.20;1.05;;;12.10;99.90;;;;;;5066053;28;20111;-73
2022/07/14 03:01:26;;;;;;;6.35;1.02;;;12.20;99.90;;;;;;5068492;28;20047;-73
2022/07/14 03:03:54;;;;;;;5.35;0.80;;;12.30;99.90;;;;;;5064847;28;20029;-72
2022/07/14 03:06:21;;;;;;;2.50;1.08;;;12.30;99.90;;;;;;5062409;28;20028;-73
2022/07/14 03:08:49;;;;;;;4.07;1.10;;;12.40;99.90;;;;;;5064362;28;20100;-72
2022/07/14 03:11:17;;;;;;;3.63;0.90;;;12.30;99.90;;;;;;5066314;28;20024;-73
2022/07/14 03:13:45;;;;;;;6.07;1.10;;;12.20;99.90;;;;;;5059466;28;20019;-73
2022/07/14 03:16:12;;;;;;;4.93;0.88;;;12.10;99.90;;;;;;5053030;28;20070;-72
2022/07/14 03:18:40;;;;;;;3.88;0.93;;;12.00;99.90;;;;;;5051361;28;20547;-73
2022/07/14 03:21:10;;;;;;;5.13;0.70;;;12.00;99.90;;;;;;5050976;28;20039;-73
2022/07/14 03:23:38;;;;;;;4.10;1.25;;;12.00;99.90;;;;;;5051410;28;20013;-73
2022/07/14 03:26:06;;;;;;;3.33;0.90;;;11.90;99.90;;;;;;5050408;28;20494;-73
2022/07/14 03:28:34;;;;;;;8.15;1.90;;;11.90;99.90;;;;;;5052256;28;20411;-72
2022/07/14 03:31:02;;;;;;;3.58;0.90;;;11.90;99.90;;;;;;5051753;28;20082;-72
2022/07/14 03:33:30;;;;;;;2.15;1.23;;;11.90;99.90;;;;;;5051942;28;20483;-73
2022/07/14 03:35:58;;;;;;;7.40;1.08;;;11.90;99.90;;;;;;5052208;28;20021;-73
2022/07/14 03:38:25;;;;;;;2.67;1.33;;;11.80;99.90;;;;;;5051117;28;20036;-72
2022/07/14 03:40:53;;;;;;;4.65;0.95;;;11.80;99.90;;;;;;5051203;28;20024;-72
2022/07/14 03:43:21;;;;;;;1.92;0.90;;;11.80;99.90;;;;;;5052191;28;20156;-69
2022/07/14 03:45:48;;;;;;;6.05;1.20;;;11.80;99.90;;;;;;5052322;28;20021;-69
2022/07/14 03:48:16;;;;;;;6.05;1.40;;;11.70;99.90;;;;;;5053637;28;20032;-72
2022/07/14 03:50:44;;;;;;;3.38;0.82;;;11.70;99.90;;;;;;5052355;28;20230;-70
2022/07/14 03:53:12;;;;;;;4.60;1.10;;;11.70;99.90;;;;;;5052574;28;20033;-70
2022/07/14 03:55:40;;;;;;;4.90;1.58;;;11.70;99.90;;;;;;5052490;28;20025;-70
2022/07/14 03:58:07;;;;;;;3.78;1.17;;;11.70;99.90;;;;;;5052513;28;20107;-69
2022/07/14 04:00:35;;;;;;;5.22;1.05;;;11.80;99.90;;;;;;5034658;28;20463;-69
2022/07/14 04:03:03;;;;;;;2.92;0.90;;;11.80;99.90;;;;;;5052578;28;20499;-70
2022/07/14 04:05:30;;;;;;;2.80;0.90;;;11.90;99.90;;;;;;5067993;28;20032;-70
2022/07/14 04:07:58;;;;;;;3.45;0.88;;;11.90;99.90;;;;;;5053014;28;20010;-71
2022/07/14 04:10:26;;;;;;;3.50;1.27;;;11.90;99.90;;;;;;5052330;28;20479;-72
2022/07/14 04:12:56;;;;;;;5.70;1.08;;;12.00;99.90;;;;;;5055719;28;20108;-71
2022/07/14 04:15:24;;;;;;;5.90;0.80;;;12.00;99.90;;;;;;5052270;28;20025;-71
2022/07/14 04:17:52;;;;;;;5.35;1.17;;;12.00;99.90;;;;;;5052291;28;20108;-73
2022/07/14 04:20:19;;;;;;;3.83;1.63;;;12.00;99.90;;;;;;5050910;28;20033;-71
2022/07/14 04:22:48;;;;;;;3.15;1.08;;;12.00;99.90;;;;;;5051400;28;20047;-70
2022/07/14 04:25:16;;;;;;;3.10;1.10;;;12.00;99.90;;;;;;5052180;28;20025;-73
2022/07/14 04:27:44;;;;;;;5.40;1.48;;;12.00;99.90;;;;;;5051835;28;20017;-70
2022/07/14 04:30:14;;;;;;;5.00;1.23;;;12.00;99.90;;;;;;5051532;28;20021;-73
2022/07/14 04:32:42;;;;;;;6.75;0.75;;;12.00;99.90;;;;;;5051578;28;20483;-72
2022/07/14 04:35:10;;;;;;;3.80;0.75;;;11.90;99.90;;;;;;5051710;28;20039;-72
2022/07/14 04:37:38;;;;;;;4.22;1.33;;;11.90;99.90;;;;;;5050422;28;20041;-70
2022/07/14 04:40:07;;;;;;;3.13;0.95;;;11.80;99.90;;;;;;5050125;28;20036;-70
2022/07/14 04:42:34;;;;;;;6.55;1.02;;;11.80;99.90;;;;;;5050115;28;20379;-70
2022/07/14 04:45:02;;;;;;;3.65;1.00;;;11.70;99.90;;;;;;5050450;28;20025;-71
2022/07/14 04:47:30;;;;;;;3.30;1.00;;;11.80;99.90;;;;;;5050817;28;20028;-70
2022/07/14 04:52:48;;;;;;;6.07;0.98;;;11.70;99.90;;;;;;5052325;28;20028;-70
2022/07/14 04:55:17;;;;;;;2.92;0.98;;;11.80;99.90;;;;;;5048135;28;20057;-73
2022/07/14 04:57:46;;;;;;;5.10;1.42;;;11.80;99.90;;;;;;5050312;28;20104;-70
2022/07/14 05:00:14;;;;;;;6.00;1.23;;;11.80;99.90;;;;;;5049086;28;20076;-70
2022/07/14 05:02:42;;;;;;;5.13;1.20;;;11.80;99.90;;;;;;5050322;28;20371;-72
2022/07/14 05:05:10;;;;;;;7.75;0.93;;;11.90;99.90;;;;;;5050469;28;20584;-72
2022/07/14 05:07:38;;;;;;;6.10;1.63;;;11.90;99.90;;;;;;5050331;28;20028;-72
2022/07/14 05:10:07;;;;;;;3.05;1.27;;;11.90;99.90;;;;;;5050736;28;20029;-71
2022/07/14 05:12:35;;;;;;;6.80;1.33;;;11.90;99.90;;;;;;5050060;28;20120;-71
2022/07/14 05:15:03;;;;;;;3.05;1.23;;;11.90;99.90;;;;;;5050301;28;20025;-71
2022/07/14 05:17:31;;;;;;;4.55;1.38;;;11.90;99.90;;;;;;5032705;28;20372;-72
2022/07/14 05:19:59;;;;;;;5.35;1.13;;;11.90;99.90;;;;;;5047899;28;20495;-71
2022/07/14 05:22:27;;;;;;;6.93;1.38;;;12.00;99.90;;;;;;5043153;28;20387;-71
2022/07/14 05:24:55;;;;;;;3.58;1.10;;;11.90;99.90;;;;;;5050611;28;20578;-72
2022/07/14 05:27:22;;;;;;;6.68;1.05;;;11.90;99.90;;;;;;5063281;28;20068;-71
2022/07/14 05:29:50;;;;;;;3.28;1.00;;;12.00;99.90;;;;;;5057978;28;20025;-71
2022/07/14 05:32:18;;;;;;;3.22;1.02;;;12.00;99.90;;;;;;5056165;28;20028;-71
2022/07/14 05:34:46;;;;;;;3.80;0.70;;;12.00;99.90;;;;;;5076579;28;20024;-72
2022/07/14 05:37:14;;;;;;;5.35;1.08;;;12.00;99.90;;;;;;5073236;28;20048;-73
2022/07/14 05:39:41;;;;;;;4.70;1.15;;;12.00;99.90;;;;;;5071856;28;20050;-73
2022/07/14 05:42:10;;;;;;;4.10;1.10;;;12.00;99.90;;;;;;5056684;28;20108;-73
2022/07/14 05:44:38;;;;;;;2.25;0.88;;;12.00;99.90;;;;;;5076657;28;20474;-72
2022/07/14 05:47:06;;;;;;;4.68;1.40;;;12.00;99.90;;;;;;5082745;28;20479;-73
2022/07/14 05:49:34;;;;;;;8.05;1.50;;;12.00;99.90;;;;;;5075575;28;20074;-71
2022/07/14 05:52:02;;;;;;;7.78;1.00;;;12.00;99.90;;;;;;5075566;28;20021;-72
2022/07/14 05:54:30;;;;;;;2.80;0.90;;;12.00;99.90;;;;;;5057774;28;20364;-72
2022/07/14 05:56:58;;;;;;;2.35;0.60;;;12.00;99.90;;;;;;5088588;28;20009;-72
2022/07/14 05:59:25;;;;;;;1.80;0.65;;;12.00;99.90;;;;;;5087970;28;20032;-72
2022/07/14 06:01:53;;;;;;;8.27;0.95;;;11.90;99.90;;;;;;5081005;28;20479;-72
2022/07/14 06:04:20;;;;;;;3.67;1.30;;;11.90;99.90;;;;;;5075401;28;20028;-72
2022/07/14 06:06:48;;;;;;;5.55;0.70;;;11.90;99.90;;;;;;5069712;28;20041;-72
2022/07/14 06:09:17;;;;;;;4.03;1.05;;;11.80;99.90;;;;;;5077091;28;20034;-72
2022/07/14 06:11:45;;;;;;;2.45;0.70;;;11.80;99.90;;;;;;5067230;28;20040;-72
2022/07/14 06:14:14;;;;;;;4.03;0.82;;;11.80;99.90;;;;;;5073474;28;20032;-72
2022/07/14 06:16:42;;;;;;;2.40;0.80;;;11.70;99.90;;;;;;5072984;28;20031;-73
2022/07/14 06:19:09;;;;;;;2.38;1.00;;;11.70;99.90;;;;;;5062176;28;20046;-72
2022/07/14 06:21:36;;;;;;;3.78;0.70;;;11.60;99.90;;;;;;5071641;28;20092;-73
2022/07/14 06:24:04;;;;;;;5.05;1.23;;;11.60;99.90;;;;;;5070360;28;20154;-77
2022/07/14 06:26:31;;;;;;;1.13;0.68;;;11.60;99.90;;;;;;5062742;28;20032;-70
2022/07/14 06:28:58;;;;;;;4.05;1.13;;;11.60;99.90;;;;;;5053209;28;20028;-74
2022/07/14 06:31:26;;;;;;;2.28;0.95;;;11.60;99.90;;;;;;5052299;28;20467;-76
2022/07/14 06:33:53;;;;;;;4.47;1.05;;;11.60;99.90;;;;;;5052240;28;20785;-76
2022/07/14 06:36:20;;;;;;;1.90;0.75;;;11.50;99.90;;;;;;5060814;28;20392;-72
2022/07/14 06:38:48;;;;;;;3.15;1.58;;;11.50;99.90;;;;;;5052604;28;20029;-71
2022/07/14 06:41:15;;;;;;;3.05;1.17;;;11.40;99.90;;;;;;5059152;28;20040;-75
2022/07/14 06:43:42;;;;;;;2.50;1.33;;;11.40;99.90;;;;;;5069779;28;20024;-75
2022/07/14 06:46:14;;;;;;;2.53;0.82;;;11.40;99.90;;;;;;5066716;28;20016;-76
2022/07/14 06:48:42;;;;;;;1.35;0.73;;;11.40;99.90;;;;;;5069289;28;20478;-70
2022/07/14 06:51:10;;;;;;;2.90;0.50;;;11.40;99.90;;;;;;5064697;28;20485;-70
2022/07/14 06:53:38;;;;;;;5.63;0.73;;;11.30;99.90;;;;;;5072989;28;20629;-73
2022/07/14 06:56:05;;;;;;;4.40;0.93;;;11.30;99.90;;;;;;5048532;28;20027;-71
2022/07/14 06:58:33;;;;;;;3.38;1.27;;;11.20;99.90;;;;;;5059179;28;20490;-69
2022/07/14 07:01:01;;;;;;;1.50;0.80;;;11.20;99.90;;;;;;5055777;28;20094;-74
2022/07/14 07:03:28;;;;;;;5.85;1.30;;;11.10;99.90;;;;;;5053419;28;20017;-71
2022/07/14 07:08:42;;;;;;;1.40;0.60;;;11.10;99.90;;;;;;5055814;28;20127;-73
2022/07/14 07:11:10;;;;;;;2.08;1.02;;;11.00;99.90;;;;;;5053997;28;20063;-76
2022/07/14 07:13:38;;;;;;;2.50;1.35;;;10.90;99.90;;;;;;5055353;28;20120;-71
2022/07/14 07:16:06;;;;;;;4.95;1.17;;;10.80;99.90;;;;;;5055916;28;20478;-70
2022/07/14 07:18:35;;;;;;;1.85;0.80;;;10.80;99.90;;;;;;5053103;28;20074;-71
2022/07/14 07:21:02;;;;;;;2.53;1.30;;;10.70;99.90;;;;;;5052850;28;20035;-75
2022/07/14 07:23:32;;;;;;;1.85;0.93;;;10.70;99.90;;;;;;5053059;28;20013;-70
2022/07/14 07:26:00;;;;;;;2.05;0.95;;;10.60;99.90;;;;;;5053235;28;20017;-70
2022/07/14 07:28:27;;;;;;;3.97;1.40;;;10.60;99.90;;;;;;5053068;28;20025;-72
2022/07/14 07:30:54;;;;;;;1.52;1.10;;;10.50;99.90;;;;;;5052982;28;20048;-70
2022/07/14 07:33:22;;;;;;;1.80;1.30;;;10.50;99.90;;;;;;5057790;28;20132;-75
2022/07/14 07:35:49;;;;;;;6.82;1.63;;;10.50;99.90;;;;;;5058168;28;20031;-76
2022/07/14 07:38:18;;;;;;;2.03;0.95;;;10.50;99.90;;;;;;5070243;28;20402;-77
2022/07/14 07:40:48;;;;;;;2.42;1.15;;;10.50;99.90;;;;;;5076963;28;20079;-75
2022/07/14 07:43:16;;;;;;;4.68;1.40;;;10.50;99.90;;;;;;5065989;28;20066;-76
2022/07/14 07:45:43;;;;;;;2.17;1.20;;;10.50;99.90;;;;;;5083100;28;20584;-76
2022/07/14 07:48:12;;;;;;;4.88;1.35;;;10.40;99.90;;;;;;5077737;28;20726;-76
2022/07/14 07:50:42;;;;;;;3.28;1.23;;;10.40;99.90;;;;;;5072830;28;20032;-77
2022/07/14 07:53:10;;;;;;;5.18;1.10;;;10.30;99.90;;;;;;5066037;28;20461;-77
2022/07/14 07:55:38;;;;;;;3.13;1.00;;;10.30;99.90;;;;;;5084299;28;20029;-77
2022/07/14 07:58:07;;;;;;;2.65;1.02;;;10.30;99.90;;;;;;5081407;28;20016;-76
2022/07/14 08:00:34;;;;;;;1.52;1.17;;;10.30;99.90;;;;;;5074373;28;20093;-76
2022/07/14 08:03:03;;;;;;;1.83;1.00;;;10.30;99.90;;;;;;5071646;28;20032;-76
2022/07/14 08:05:32;;;;;;;2.83;1.10;;;10.30;99.90;;;;;;5080373;28;20102;-76
2022/07/14 08:08:00;;;;;;;2.78;1.40;;;10.20;99.90;;;;;;5082481;28;20019;-75
2022/07/14 08:10:28;;;;;;;2.53;1.42;;;10.20;99.90;;;;;;5062265;28;20027;-76
2022/07/14 08:12:55;;;;;;;2.83;1.27;;;10.20;99.90;;;;;;5055036;28;20398;-70
2022/07/14 08:15:24;;;;;;;4.03;1.05;;;10.30;99.90;;;;;;5055975;28;20032;-70
2022/07/14 08:17:52;;;;;;;3.80;1.00;;;10.20;99.90;;;;;;5058875;28;20145;-70
2022/07/14 08:20:22;;;;;;;2.35;1.17;;;10.20;99.90;;;;;;5055476;28;20036;-71
2022/07/14 08:22:51;;;;;;;1.52;0.90;;;10.20;99.90;;;;;;5055347;28;20017;-71
2022/07/14 08:25:18;;;;;;;2.03;0.90;;;10.20;99.90;;;;;;5052760;28;20082;-71
2022/07/14 08:27:46;;;;;;;2.15;1.17;;;10.10;99.90;;;;;;5055913;28;20020;-71
2022/07/14 08:30:13;;;;;;;2.60;0.77;;;10.10;99.90;;;;;;5056124;28;20017;-71
2022/07/14 08:32:49;;;;;;;3.10;0.90;;;10.10;99.90;;;;;;5055151;28;20017;-71
2022/07/14 08:35:17;;;;;;;;;;;10.10;99.90;;;;;;5039686;28;20021;-70
2022/07/14 08:37:45;;;;;;;2.88;1.17;;;10.10;99.90;;;;;;5056018;28;19911;-71
2022/07/14 08:40:18;;;;;;;2.25;0.85;;;10.10;99.90;;;;;;5055271;28;20060;-71
2022/07/14 08:42:48;;;;;;;3.83;0.88;;;10.10;99.90;;;;;;5055886;28;20100;-71
2022/07/14 08:45:18;;;;;;;2.80;1.25;;;10.10;99.90;;;;;;5050869;28;20475;-70
2022/07/14 08:47:46;;;;;;;2.30;0.82;;;10.10;99.90;;;;;;5051242;28;20030;-70
2022/07/14 08:50:16;;;;;;;5.35;1.13;;;10.10;99.90;;;;;;5050994;28;20024;-70
2022/07/14 08:52:45;;;;;;;5.03;1.27;;;10.00;99.90;;;;;;5050699;28;20402;-72
2022/07/14 08:55:15;;;;;;;4.05;0.90;;;10.00;99.90;;;;;;5050560;28;20472;-70
2022/07/14 08:57:43;;;;;;;4.40;1.42;;;10.00;99.90;;;;;;5051270;28;20468;-71
2022/07/14 09:00:15;;;;;;;2.33;0.93;;;10.00;99.90;;;;;;5050444;28;20132;-70
2022/07/14 09:02:49;;;;;;;5.55;0.93;;;10.00;99.90;;;;;;5050484;28;20037;-70
2022/07/14 09:05:17;;;;;;;7.18;2.80;;;10.00;99.90;;;;;;5050822;28;20028;-70
2022/07/14 09:07:44;;;;;;;3.17;1.15;;;10.00;99.90;;;;;;5054715;28;20109;-71
2022/07/14 09:10:15;;;;;;;2.83;1.92;;;9.90;99.90;;;;;;5054211;28;20430;-70
2022/07/14 09:12:43;;;;;;;9.63;1.83;;;9.90;99.90;;;;;;5054351;28;20062;-70
2022/07/14 09:18:12;;;;;;;3.80;1.75;;;9.90;99.90;;;;;;5054775;28;20028;-70
2022/07/14 09:20:40;;;;;;;2.88;0.90;;;9.80;99.90;;;;;;5054451;28;20040;-71
2022/07/14 09:23:07;;;;;;;6.07;1.33;;;9.80;99.90;;;;;;5054407;28;20088;-70
2022/07/14 09:25:35;;;;;;;9.20;1.70;;;9.70;99.90;;;;;;5054780;28;20021;-71
2022/07/14 09:28:04;;;;;;;4.57;1.70;;;9.70;99.90;;;;;;5054303;28;20637;-70
2022/07/14 09:30:34;;;;;;;2.58;1.00;;;9.60;99.90;;;;;;5054079;28;20025;-74
2022/07/14 09:33:03;;;;;;;5.03;1.42;;;9.60;99.90;;;;;;5054022;28;20025;-71
2022/07/14 09:35:34;;;;;;;4.03;1.80;;;9.60;99.90;;;;;;5039145;28;20025;-74
2022/07/14 09:38:15;;;;;;;3.28;1.42;;;9.60;99.90;;;;;;5062954;28;20028;-74
2022/07/14 09:40:42;;;;;;;4.03;1.70;;;9.60;99.90;;;;;;5072403;28;20032;-75
2022/07/14 09:43:12;;;;;;;3.63;1.27;;;9.70;99.90;;;;;;5067050;28;20031;-73
2022/07/14 09:45:45;;;;;;;3.00;1.20;;;9.70;99.90;;;;;;5072069;28;20068;-74
2022/07/14 09:48:16;;;;;;;2.13;1.05;;;9.60;99.90;;;;;;5069741;28;20016;-75
2022/07/14 09:50:54;;;;;;;3.03;1.33;;;9.60;99.90;;;;;;5072948;28;20024;-74
2022/07/14 09:53:26;;;;;;;4.15;1.35;;;9.50;99.90;;;;;;5070645;28;20053;-74
2022/07/14 09:56:13;;;;;;;7.18;1.70;;;9.50;99.90;;;;;;5069546;28;20028;-74
2022/07/14 09:58:54;;;;;;;3.00;1.40;;;9.40;99.90;;;;;;5071579;28;20054;-75
2022/07/14 10:01:24;;;;;;;3.92;1.77;;;9.40;99.90;;;;;;5072821;28;20503;-74
2022/07/14 10:03:54;;;;;;;4.80;1.55;;;9.40;99.90;;;;;;5069457;28;20036;-70
2022/07/14 10:06:23;;;;;;;4.78;1.67;;;9.40;99.90;;;;;;5066289;28;20047;-70
2022/07/14 10:08:59;;;;;;;6.60;1.40;;;9.30;99.90;;;;;;5073572;28;20027;-75
2022/07/14 10:11:29;;;;;;;4.25;1.42;;;9.20;99.90;;;;;;5070041;28;20070;-70
2022/07/14 10:13:57;;;;;;;5.95;2.00;;;9.10;99.90;;;;;;5067852;28;20021;-73
2022/07/14 10:16:25;;;;;;;2.75;1.55;;;9.10;99.90;;;;;;5072727;28;20031;-70
2022/07/14 10:18:52;;;;;;;3.50;1.30;;;9.10;99.90;;;;;;5073109;28;20073;-69
2022/07/14 10:21:20;;;;;;;4.38;1.60;;;9.00;99.90;;;;;;5071727;28;20035;-69
2022/07/14 10:23:48;;;;;;;5.68;1.55;;;9.00;99.90;;;;;;5069778;28;20024;-69
2022/07/14 10:26:17;;;;;;;4.20;1.80;;;9.00;99.90;;;;;;5063209;28;20028;-74
2022/07/14 10:28:45;;;;;;;5.03;1.52;;;9.00;99.90;;;;;;5071338;28;20547;-70
2022/07/14 10:31:50;;;;;;;3.28;1.30;;;8.90;99.90;;;;;;5065900;28;20032;-73
2022/07/14 10:34:53;;;;;;;2.17;1.52;;;8.80;99.90;;;;;;5062330;28;20032;-69
2022/07/14 10:37:33;;;;;;;2.45;1.23;;;8.80;99.90;;;;;;5070696;28;20047;-70
2022/07/14 10:40:20;;;;;;;2.83;1.30;;;8.80;99.90;;;;;;5070597;28;20033;-73
2022/07/14 10:43:00;;;;;;;6.18;1.42;;;8.80;99.90;;;;;;5069459;28;20017;-73
2022/07/14 10:45:29;;;;;;;3.28;1.13;;;8.90;99.90;;;;;;5073741;28;20017;-69
2022/07/14 10:47:56;;;;;;;7.15;2.00;;;9.00;99.90;;;;;;5072265;28;20043;-69
2022/07/14 10:50:25;;;;;;;2.88;1.45;;;9.00;99.90;;;;;;5071152;28;20078;-70
2022/07/14 10:53:05;;;;;;;2.05;1.30;;;8.90;99.90;;;;;;5067838;28;20017;-73
2022/07/14 10:55:34;;;;;;;5.15;1.80;;;9.00;99.90;;;;;;5070282;28;20462;-70
2022/07/14 10:58:03;;;;;;;2.35;0.95;;;9.00;99.90;;;;;;5072127;28;20020;-70
2022/07/14 11:00:43;;;;;;;3.13;1.40;;;8.90;99.90;;;;;;5069374;28;20495;-70
2022/07/14 11:03:36;;;;;;;3.08;0.98;;;8.90;99.90;;;;;;5070285;28;20031;-69
2022/07/14 11:06:05;;;;;;;2.53;1.15;;;8.80;99.90;;;;;;5046172;28;20395;-70
2022/07/14 11:08:33;;;;;;;2.75;1.23;;;8.80;99.90;;;;;;5069073;28;20027;-69
2022/07/14 11:11:02;;;;;;;3.53;1.45;;;8.70;99.90;;;;;;5071662;28;20016;-70
2022/07/14 11:13:29;;;;;;;5.20;1.90;;;8.60;99.90;;;;;;5052498;28;20379;-69
2022/07/14 11:16:03;;;;;;;5.35;1.70;;;8.60;99.90;;;;;;5072281;28;20025;-75
2022/07/14 11:18:35;;;;;;;3.47;1.52;;;8.50;99.90;;;;;;5072235;28;20025;-70
2022/07/14 11:21:13;;;;;;;3.20;1.40;;;8.40;99.90;;;;;;5073126;28;20024;-70
2022/07/14 11:23:50;;;;;;;4.43;2.00;;;8.30;99.90;;;;;;5068865;28;20029;-70
2022/07/14 11:26:40;;;;;;;10.25;2.60;;;8.30;99.90;;;;;;5069504;28;20119;-70
2022/07/14 11:29:09;;;;;;;5.30;2.53;;;8.20;99.90;;;;;;5062177;28;20104;-74
2022/07/14 11:31:47;;;;;;;3.60;2.28;;;8.20;99.90;;;;;;5071703;28;20017;-70
2022/07/14 11:37:11;;;;;;;11.10;2.20;;;8.10;99.90;;;;;;5069487;28;20390;-70
2022/07/14 11:39:40;;;;;;;4.63;2.10;;;8.10;99.90;;;;;;5070830;28;20035;-73
2022/07/14 11:42:08;;;;;;;5.95;2.05;;;8.00;99.90;;;;;;5071112;28;20024;-75
2022/07/14 11:44:41;;;;;;;4.93;2.00;;;8.00;99.90;;;;;;5070134;28;20020;-74
2022/07/14 11:47:24;;;;;;;3.97;1.80;;;8.00;99.90;;;;;;5072029;28;20021;-75
2022/07/14 11:50:01;;;;;;;7.35;2.33;;;7.90;99.90;;;;;;5068750;28;20021;-75
2022/07/14 11:52:34;;;;;;;5.18;2.15;;;7.90;99.90;;;;;;5070395;28;20545;-75
2022/07/14 11:55:07;;;;;;;5.43;2.03;;;7.90;99.90;;;;;;5069474;28;20056;-75
2022/07/14 11:57:35;;;;;;;15.05;2.25;;;7.90;99.90;;;;;;5071271;28;20081;-74
2022/07/14 12:00:08;;;;;;;2.58;1.60;;;7.80;99.90;;;;;;5070772;28;20383;-73
2022/07/14 12:02:49;;;;;;;3.58;1.50;;;7.80;99.90;;;;;;5070713;28;20021;-74
2022/07/14 12:05:16;;;;;;;2.85;1.50;;;7.80;99.90;;;;;;5068154;28;20013;-73
2022/07/14 12:07:49;;;;;;;4.55;2.25;;;7.80;99.90;;;;;;5070088;28;20489;-74
2022/07/14 12:10:33;;;;;;;2.85;2.08;;;7.80;99.90;;;;;;5068580;28;20022;-75
2022/07/14 12:13:00;;;;;;;3.65;1.75;;;7.80;99.90;;;;;;5070857;28;20020;-74
2022/07/14 12:15:28;;;;;;;5.25;2.17;;;7.80;99.90;;;;;;5069985;28;20040;-73
2022/07/14 12:17:55;;;;;;;5.97;1.73;;;7.70;99.90;;;;;;5071779;28;20095;-75
2022/07/14 12:20:24;;;;;;;6.60;2.30;;;7.70;99.90;;;;;;5071655;28;20158;-72
2022/07/14 12:22:56;;;;;;;4.95;2.00;;;7.70;99.90;;;;;;5069587;28;20017;-74
2022/07/14 12:25:28;;;;;;;4.20;2.40;;;7.60;99.90;;;;;;5068106;28;20028;-73
2022/07/14 12:27:56;;;;;;;4.07;1.92;;;7.60;99.90;;;;;;5068719;28;20514;-74
2022/07/14 12:30:24;;;;;;;7.15;2.55;;;7.60;99.90;;;;;;5069591;28;20032;-73
2022/07/14 12:32:55;;;;;;;6.75;2.10;;;7.60;99.90;;;;;;5065001;28;20028;-75
2022/07/14 12:35:23;;;;;;;4.50;2.28;;;7.60;99.90;;;;;;5057432;28;20024;-72
2022/07/14 12:37:53;;;;;;;5.43;2.30;;;7.50;99.90;;;;;;5069548;28;20467;-75
2022/07/14 12:40:20;;;;;;;6.47;2.10;;;7.50;99.90;;;;;;5070293;28;20056;-74
2022/07/14 12:42:50;;;;;;;4.07;2.00;;;7.50;99.90;;;;;;5070554;28;20012;-75
2022/07/14 12:45:17;;;;;;;5.05;2.13;;;7.50;99.90;;;;;;5075873;28;20021;-74
2022/07/14 12:47:54;;;;;;;7.15;2.47;;;7.50;99.90;;;;;;5075462;28;20070;-76
2022/07/14 12:50:26;;;;;;;6.55;2.58;;;7.40;99.90;;;;;;5072865;28;20020;-75
2022/07/14 12:52:56;;;;;;;7.78;2.35;;;7.40;99.90;;;;;;5073574;28;20025;-72
2022/07/14 12:55:49;;;;;;;5.57;2.42;;;7.40;99.90;;;;;;5073567;28;20029;-76
2022/07/14 12:58:17;;;;;;;6.65;1.90;;;7.30;99.90;;;;;;5073788;28;20522;-73
2022/07/14 13:00:44;;;;;;;5.65;2.17;;;7.30;99.90;;;;;;5074762;28;20135;-76
2022/07/14 13:03:19;;;;;;;5.38;2.15;;;7.30;99.90;;;;;;5075919;28;20009;-76
2022/07/14 13:05:57;;;;;;;2.85;1.65;;;7.30;99.90;;;;;;5075629;28;20016;-73
2022/07/14 13:08:40;;;;;;;3.47;2.03;;;7.30;99.90;;;;;;5075704;28;20033;-75
2022/07/14 13:11:12;;;;;;;5.90;2.60;;;7.30;99.90;;;;;;5076773;28;20047;-75
2022/07/14 13:13:49;;;;;;;2.33;1.45;;;7.20;99.90;;;;;;5075952;28;20033;-75